Panda — PBCS — position and weather

sailwx.info

Track history (hours):
 
Tides and Currents Weather Stations Pressure Air Temp Water Temp Dewpoint Dewpoint Depression Visibility Wind Speed Wind Dir Waves Ship Positions

Panda

Last reported at 2017-Aug-18 23:30 UTC. Time now 2017-Aug-18 23:54 UTC.
Position N 52°24' E 004°49'.

Length 89 m; draft 3.1 m.

Type: Cargo ship. MMSI: 245014000.

Date/timePositionNaut miles runAvg speedWind from/ knotsBaromVisibWave heightAir tempDewpointWater temp
2017-Aug-18 23:30N 52°24' E 004°49'0 0.0
2017-Aug-18 23:00N 52°24' E 004°49'0 0.0
2017-Aug-18 22:30N 52°24' E 004°49'0 0.0
2017-Aug-18 22:00N 52°24' E 004°49'0 0.0
2017-Aug-18 21:30N 52°24' E 004°49'0 0.1
2017-Aug-18 21:00N 52°24' E 004°49'0 0.0
2017-Aug-18 20:30N 52°24' E 004°49'0 0.0
2017-Aug-18 20:00N 52°24' E 004°49'0 0.0
2017-Aug-18 19:30N 52°24' E 004°49'0 0.0
2017-Aug-18 19:00N 52°24' E 004°49'0 0.0
2017-Aug-18 18:30N 52°24' E 004°49'0 0.0
2017-Aug-18 18:00N 52°24' E 004°49'0 0.0
2017-Aug-18 17:30N 52°24' E 004°49'0 0.0
2017-Aug-18 17:00N 52°24' E 004°49'0 0.0
2017-Aug-18 16:30N 52°24' E 004°49'0 0.0
2017-Aug-18 16:00N 52°24' E 004°49'0 0.0
2017-Aug-18 15:30N 52°24' E 004°49'0 0.0
2017-Aug-18 15:00N 52°24' E 004°49'0 0.0
2017-Aug-18 13:57N 52°24' E 004°49'0 0.1
2017-Aug-18 13:30N 52°24' E 004°49'0 0.1
2017-Aug-18 13:00N 52°24' E 004°49'0 0.0
2017-Aug-18 12:30N 52°24' E 004°49'0 0.0
2017-Aug-18 12:00N 52°24' E 004°49'0 0.0
2017-Aug-18 11:30N 52°24' E 004°49'0 0.1
2017-Aug-18 10:59N 52°24' E 004°49'0 0.1
2017-Aug-18 10:31N 52°24' E 004°49'2 3.3
2017-Aug-18 10:01N 52°25' E 004°48'3 6.3
2017-Aug-18 09:30N 52°26' E 004°43'4 8.3
2017-Aug-18 09:00N 52°28' E 004°37'1 2.0
2017-Aug-18 08:31N 52°28' E 004°35'4 8.3
2017-Aug-18 08:00N 52°28' E 004°28'510.0
2017-Aug-18 07:30N 52°28' E 004°20'510.2
2017-Aug-18 07:00N 52°29' E 004°12'510.0
2017-Aug-18 06:30N 52°28' E 004°04'5 9.9
2017-Aug-18 06:00N 52°27' E 003°56'6610.2
2017-Aug-17 23:35N 52°34' E 002°09'1 9.0
2017-Aug-17 23:29N 52°34' E 002°08'4 8.9
2017-Aug-17 23:00N 52°38' E 002°04'4 8.6
2017-Aug-17 22:30N 52°41' E 002°00'4 8.5
2017-Aug-17 22:00N 52°45' E 001°57'4 8.5
2017-Aug-17 21:30N 52°49' E 001°52'4 8.8
2017-Aug-17 21:00N 52°51' E 001°46'4 8.7
2017-Aug-17 20:30N 52°53' E 001°40'4 8.9
2017-Aug-17 20:00N 52°55' E 001°34'5 9.2
2017-Aug-17 19:30N 52°57' E 001°27'5 9.8
2017-Aug-17 19:00N 52°59' E 001°19'510.2
2017-Aug-17 18:30N 53°01' E 001°12'2 0.1
2017-Aug-16 08:45N 53°02' E 001°08'310.6
2017-Aug-16 08:30N 53°01' E 001°12'511.0
2017-Aug-16 08:00N 52°59' E 001°21'611.4
2017-Aug-16 07:30N 52°56' E 001°29'611.4
2017-Aug-16 07:00N 52°53' E 001°37'611.1
2017-Aug-16 06:30N 52°50' E 001°45'510.4
2017-Aug-16 06:00N 52°47' E 001°52'5 9.8
2017-Aug-16 05:30N 52°45' E 001°59'5 9.5
2017-Aug-16 05:00N 52°42' E 002°06'5 9.1
2017-Aug-16 04:30N 52°40' E 002°12'5 8.8
2017-Aug-16 03:59N 52°37' E 002°18'4 8.4
2017-Aug-16 03:30N 52°35' E 002°24'10 8.4
2017-Aug-16 02:18N 52°29' E 002°37'3 9.1
2017-Aug-16 02:00N 52°28' E 002°41'5 9.5
2017-Aug-16 01:30N 52°26' E 002°48'5 9.6
2017-Aug-16 01:00N 52°23' E 002°55'6 9.8
2017-Aug-16 00:26N 52°20' E 003°02'510.1
2017-Aug-15 23:56N 52°17' E 003°09'410.2
2017-Aug-15 23:30N 52°15' E 003°15'510.4
2017-Aug-15 23:01N 52°12' E 003°22'510.3
2017-Aug-15 22:30N 52°10' E 003°30'611.4
2017-Aug-15 22:00N 52°07' E 003°38'4 8.9
2017-Aug-15 21:30N 52°05' E 003°45'5 9.8
2017-Aug-15 21:00N 52°04' E 003°52'5 9.4
2017-Aug-15 20:30N 52°02' E 003°59'5 9.9
2017-Aug-15 20:00N 51°59' E 004°06'4 8.6
2017-Aug-15 19:30N 51°57' E 004°11'4 8.4
2017-Aug-15 19:00N 51°54' E 004°17'4 8.0
2017-Aug-15 18:30N 51°54' E 004°23'3 5.0
2017-Aug-15 18:00N 51°54' E 004°27'2 4.5
2017-Aug-15 17:30N 51°55' E 004°31'4 8.4
2017-Aug-15 17:00N 51°53' E 004°37'5 9.6
2017-Aug-15 16:31N 51°49' E 004°41'0 0.7
2017-Aug-15 16:00N 51°49' E 004°42'0 0.0
2017-Aug-15 15:30N 51°49' E 004°42'0 0.2
2017-Aug-15 15:00N 51°49' E 004°41'4 7.3
2017-Aug-15 14:30N 51°49' E 004°47'510.5
2017-Aug-15 14:00N 51°50' E 004°56'30 9.1
2017-Aug-15 10:40N 51°53' E 005°44'210.7
2017-Aug-15 10:30N 51°53' E 005°47'4 8.4
2017-Aug-15 09:59N 51°52' E 005°54'4 7.6
2017-Aug-15 09:30N 51°53' E 006°00'510.3
2017-Aug-15 09:00N 51°51' E 006°08'510.6
2017-Aug-15 08:30N 51°49' E 006°16'11 9.0
2017-Aug-15 07:15N 51°41' E 006°28'2 9.3
2017-Aug-15 07:00N 51°40' E 006°31'4 7.2
2017-Aug-15 06:30N 51°37' E 006°35'4 7.6
2017-Aug-15 05:58N 51°35' E 006°41'4 9.4
2017-Aug-15 05:30N 51°31' E 006°43'3 6.7
2017-Aug-15 05:00N 51°27' E 006°43'2 3.6
2017-Aug-15 04:30N 51°27' E 006°46'0 0.0
2017-Aug-15 03:43N 51°27' E 006°46'0 0.0
2017-Aug-15 03:25N 51°27' E 006°46'0 0.0
2017-Aug-15 02:58N 51°27' E 006°46'0 0.0
2017-Aug-15 02:25N 51°27' E 006°46'0 0.0
2017-Aug-15 01:58N 51°27' E 006°46'0 0.0
2017-Aug-15 01:28N 51°27' E 006°46'0 0.0
2017-Aug-15 00:58N 51°27' E 006°46'0 0.0
2017-Aug-15 00:31N 51°27' E 006°46'0 0.0
2017-Aug-15 00:01N 51°27' E 006°46'0 0.0
2017-Aug-14 23:30N 51°27' E 006°46'0 0.0
2017-Aug-14 23:00N 51°27' E 006°46'0 0.0
2017-Aug-14 22:27N 51°27' E 006°46'0 0.0
2017-Aug-14 21:57N 51°27' E 006°46'0 0.0
2017-Aug-14 21:30N 51°27' E 006°46'0 0.0
2017-Aug-14 20:57N 51°27' E 006°46'0 0.0
2017-Aug-14 20:30N 51°27' E 006°46'0 0.0
2017-Aug-14 20:00N 51°27' E 006°46'0 0.0
2017-Aug-14 19:24N 51°27' E 006°46'0 0.0
2017-Aug-14 19:00N 51°27' E 006°46'0 0.0
2017-Aug-14 18:30N 51°27' E 006°46'0 0.0
2017-Aug-14 17:57N 51°27' E 006°46'0 0.0
2017-Aug-14 17:30N 51°27' E 006°46'0 0.0
2017-Aug-14 16:57N 51°27' E 006°46'0 0.0
2017-Aug-14 16:30N 51°27' E 006°46'0 0.0
2017-Aug-14 16:00N 51°27' E 006°46'0 0.0
2017-Aug-14 15:30N 51°27' E 006°46'0 0.0
2017-Aug-14 14:57N 51°27' E 006°46'0 0.0
2017-Aug-14 13:39N 51°27' E 006°46'0 0.0
2017-Aug-14 13:27N 51°27' E 006°46'0 0.0
2017-Aug-14 12:54N 51°27' E 006°46'0 0.0
2017-Aug-14 12:21N 51°27' E 006°46'0 0.0
2017-Aug-14 06:21N 51°27' E 006°46'0 0.0
2017-Aug-14 06:00N 51°27' E 006°46'0 0.0
2017-Aug-14 05:00N 51°27' E 006°46'0 0.0
2017-Aug-14 04:27N 51°27' E 006°46'0 0.0
2017-Aug-14 03:42N 51°27' E 006°46'0 0.0
2017-Aug-14 03:30N 51°27' E 006°46'0 0.0
2017-Aug-14 03:00N 51°27' E 006°46'0 0.0
2017-Aug-14 02:30N 51°27' E 006°46'0 0.0
2017-Aug-14 02:00N 51°27' E 006°46'1 1.0
2017-Aug-14 01:30N 51°27' E 006°46'2 3.0
2017-Aug-14 01:00N 51°27' E 006°43'3 5.1
2017-Aug-14 00:30N 51°29' E 006°41'2 4.3
2017-Aug-14 00:00N 51°31' E 006°42'3 5.5
2017-Aug-13 23:30N 51°34' E 006°41'3 5.4
2017-Aug-13 22:58N 51°34' E 006°37'3 6.3
2017-Aug-13 22:30N 51°37' E 006°35'3 5.4
2017-Aug-13 22:00N 51°40' E 006°35'4 6.6
2017-Aug-13 21:28N 51°40' E 006°29'5 5.8
2017-Aug-13 20:36N 51°44' E 006°25'1 6.4
2017-Aug-13 20:30N 51°45' E 006°25'4 6.1
2017-Aug-13 19:54N 51°46' E 006°20'3 6.9
2017-Aug-13 19:30N 51°48' E 006°18'3 6.8
2017-Aug-13 19:00N 51°50' E 006°13'3 6.4
2017-Aug-13 18:31N 51°51' E 006°08'3 6.9
2017-Aug-13 18:00N 51°52' E 006°03'3 5.6
2017-Aug-13 17:30N 51°51' E 005°59'3 6.5
2017-Aug-13 17:00N 51°52' E 005°54'3 4.9
2017-Aug-13 16:26N 51°52' E 005°49'28 6.3
2017-Aug-13 11:59N 51°49' E 005°04'4 9.1
2017-Aug-13 11:30N 51°50' E 004°57'5 9.2
2017-Aug-13 11:00N 51°49' E 004°49'4 8.8
2017-Aug-13 10:30N 51°49' E 004°42'4 8.4
2017-Aug-13 10:00N 51°53' E 004°38'4 9.1
2017-Aug-13 09:30N 51°54' E 004°31'2 4.5
2017-Aug-13 09:00N 51°54' E 004°27'0 0.8
2017-Aug-13 08:30N 51°54' E 004°27'5 9.0
2017-Aug-13 08:00N 51°54' E 004°20'5 9.8
2017-Aug-13 07:30N 51°56' E 004°13'510.6
2017-Aug-13 07:00N 51°59' E 004°05'510.3
2017-Aug-13 06:30N 51°60' E 003°57'611.9
2017-Aug-13 06:00N 51°59' E 003°48'1428.2
2017-Aug-13 05:30N 51°55' E 003°25'0 0.0
2017-Aug-13 05:00N 51°55' E 003°25'4 7.6
2017-Aug-13 04:30N 51°54' E 003°19'2611.3
2017-Aug-13 02:13N 51°45' E 002°40'310.3
2017-Aug-13 01:55N 51°43' E 002°36'410.0
2017-Aug-13 01:30N 51°40' E 002°32'5 9.7
2017-Aug-13 01:00N 51°36' E 002°27'5 9.3
2017-Aug-13 00:30N 51°33' E 002°22'4 8.9
2017-Aug-13 00:00N 51°30' E 002°17'4 9.0
2017-Aug-12 23:30N 51°26' E 002°13'4 8.8
2017-Aug-12 23:00N 51°22' E 002°10'4 8.8
2017-Aug-12 22:30N 51°18' E 002°06'4 8.8
2017-Aug-12 22:00N 51°14' E 002°03'4 8.9
2017-Aug-12 21:30N 51°12' E 001°57'5 9.0
2017-Aug-12 21:00N 51°09' E 001°51'4 8.9
2017-Aug-12 20:30N 51°06' E 001°45'5 9.3
2017-Aug-12 20:00N 51°03' E 001°41'5 9.6
2017-Aug-12 19:30N 50°59' E 001°36'5 9.9
2017-Aug-12 19:00N 50°55' E 001°31'5910.1
2017-Aug-12 13:09N 50°20' E 000°15'412.0
2017-Aug-12 12:51N 50°20' E 000°10'412.3
2017-Aug-12 12:30N 50°19' E 000°03'612.7
2017-Aug-12 12:00N 50°17' W 000°06'613.0
2017-Aug-12 11:30N 50°15' W 000°16'2513.3
2017-Aug-12 09:36N 50°08' W 000°54'112.8
2017-Aug-12 09:30N 50°08' W 000°56'612.6
2017-Aug-12 09:01N 50°06' W 001°05'612.1
2017-Aug-12 08:30N 50°04' W 001°14'611.2
2017-Aug-12 08:00N 50°03' W 001°23'510.3
2017-Aug-12 07:30N 50°02' W 001°30'5 9.6
2017-Aug-12 07:00N 50°01' W 001°38'4 8.6
2017-Aug-12 06:31N 49°60' W 001°44'4 7.9
2017-Aug-12 06:00N 49°59' W 001°50'4 7.3
2017-Aug-12 05:30N 49°58' W 001°56'3 6.8
2017-Aug-12 05:00N 49°57' W 002°01'3 6.5
2017-Aug-12 04:30N 49°56' W 002°06'3 6.6
2017-Aug-12 04:00N 49°55' W 002°10'21 8.4
2017-Aug-12 01:31N 49°49' W 002°42'010.1
2017-Aug-12 01:30N 49°49' W 002°42'510.2
2017-Aug-12 01:00N 49°48' W 002°50'1110.7
2017-Aug-11 23:57N 49°42' W 003°04'711.2
2017-Aug-11 23:18N 49°37' W 003°13'311.2
2017-Aug-11 23:00N 49°35' W 003°17'2111.7
2017-Aug-11 21:12N 49°22' W 003°43'412.1
2017-Aug-11 20:52N 49°20' W 003°48'712.2
2017-Aug-11 20:15N 49°15' W 003°57'512.6
2017-Aug-11 19:51N 49°12' W 004°03'512.6
2017-Aug-11 19:27N 49°09' W 004°09'912.7
2017-Aug-11 18:43N 49°04' W 004°21'1512.7
2017-Aug-11 17:32N 48°55' W 004°40'012.7
2017-Aug-11 17:30N 48°55' W 004°40'612.7
2017-Aug-11 17:00N 48°51' W 004°48'612.6
2017-Aug-11 16:30N 48°47' W 004°56'612.3
2017-Aug-11 16:00N 48°44' W 005°03'612.1
2017-Aug-11 15:30N 48°40' W 005°11'611.7
2017-Aug-11 15:00N 48°36' W 005°17'611.0
2017-Aug-11 14:30N 48°32' W 005°23'9 9.2
2017-Aug-11 13:29N 48°23' W 005°21'5 9.6
2017-Aug-11 12:55N 48°18' W 005°19'4 9.3
2017-Aug-11 12:30N 48°14' W 005°17'5 9.4
2017-Aug-11 12:00N 48°09' W 005°15'5 9.6
2017-Aug-11 11:29N 48°05' W 005°12'5 9.5
2017-Aug-11 11:00N 48°01' W 005°08'510.1
2017-Aug-11 10:30N 47°59' W 005°02'5 9.8
2017-Aug-11 10:00N 47°56' W 004°55'510.0
2017-Aug-11 09:30N 47°53' W 004°49'5 9.8
2017-Aug-11 09:00N 47°51' W 004°43'5 9.5
2017-Aug-11 08:30N 47°48' W 004°37'5 8.9
2017-Aug-11 07:55N 47°46' W 004°30'7 8.6
2017-Aug-11 07:07N 47°42' W 004°21'8 8.8
2017-Aug-11 06:10N 47°38' W 004°10'2 8.9
2017-Aug-11 05:58N 47°37' W 004°08'4 8.9
2017-Aug-11 05:30N 47°35' W 004°03'5 9.1
2017-Aug-11 04:59N 47°33' W 003°57'4 9.1
2017-Aug-11 04:30N 47°31' W 003°51'4 8.8
2017-Aug-11 04:00N 47°28' W 003°46'5 9.0
2017-Aug-11 03:30N 47°25' W 003°41'5 9.1
2017-Aug-11 03:00N 47°23' W 003°35'5 9.1
2017-Aug-11 02:30N 47°20' W 003°29'5 9.1
2017-Aug-11 02:00N 47°18' W 003°24'4 8.9
2017-Aug-11 01:30N 47°16' W 003°18'4 9.0
2017-Aug-11 01:00N 47°14' W 003°11'5 9.2
2017-Aug-11 00:30N 47°13' W 003°05'5 9.1
2017-Aug-11 00:00N 47°11' W 002°59'4 9.1
2017-Aug-10 23:30N 47°10' W 002°53'5 9.5
2017-Aug-10 22:58N 47°08' W 002°46'5 9.9
2017-Aug-10 22:30N 47°07' W 002°39'510.2
2017-Aug-10 22:00N 47°06' W 002°31'510.1
2017-Aug-10 21:30N 47°07' W 002°24'510.4
2017-Aug-10 21:00N 47°10' W 002°19'511.0
2017-Aug-10 20:30N 47°15' W 002°14'611.0
2017-Aug-10 20:00N 47°18' W 002°08'0 0.0
2017-Aug-10 19:30N 47°18' W 002°08'0 0.0
2017-Aug-10 19:00N 47°18' W 002°08'0 0.0
2017-Aug-10 17:45N 47°18' W 002°08'0 0.0
2017-Aug-10 17:09N 47°18' W 002°08'0 0.0
2017-Aug-10 17:00N 47°18' W 002°08'0 0.0
2017-Aug-10 16:24N 47°18' W 002°08'0 0.0
2017-Aug-10 16:00N 47°18' W 002°08'0 0.0
2017-Aug-10 15:30N 47°18' W 002°08'0 0.0
2017-Aug-10 14:57N 47°18' W 002°08'0 0.0
2017-Aug-10 14:27N 47°18' W 002°08'0 0.0
2017-Aug-10 12:57N 47°18' W 002°08'0 0.0
2017-Aug-10 11:21N 47°18' W 002°08'0 0.0
2017-Aug-10 10:54N 47°18' W 002°08'0 0.0
2017-Aug-10 10:09N 47°18' W 002°08'0 0.0
2017-Aug-10 10:00N 47°18' W 002°08'0 0.0
2017-Aug-10 09:24N 47°18' W 002°08'0 0.0
2017-Aug-10 08:57N 47°18' W 002°08'0 0.0
2017-Aug-10 08:30N 47°18' W 002°08'0 0.0
2017-Aug-10 08:00N 47°18' W 002°08'0 0.0
2017-Aug-10 07:30N 47°18' W 002°08'0 0.0
2017-Aug-10 07:00N 47°18' W 002°08'0 0.0
2017-Aug-10 06:12N 47°18' W 002°08'0 0.0
2017-Aug-10 06:00N 47°18' W 002°08'0 0.0
2017-Aug-10 05:30N 47°18' W 002°08'0 0.0
2017-Aug-10 05:00N 47°18' W 002°08'0 0.0
2017-Aug-10 04:30N 47°18' W 002°08'0 0.0
2017-Aug-10 04:00N 47°18' W 002°08'0 0.0
2017-Aug-10 03:30N 47°18' W 002°08'0 0.0
2017-Aug-10 02:57N 47°18' W 002°08'0 0.0
2017-Aug-10 02:24N 47°18' W 002°08'0 0.0
2017-Aug-10 02:00N 47°18' W 002°08'0 0.0
2017-Aug-10 01:27N 47°18' W 002°08'0 0.0
2017-Aug-10 01:00N 47°18' W 002°08'0 0.9
2017-Aug-10 00:30N 47°18' W 002°07'4 7.6
2017-Aug-10 00:00N 47°16' W 002°11'4 8.9
2017-Aug-09 23:30N 47°13' W 002°16'4 8.9
2017-Aug-09 23:00N 47°09' W 002°20'3 6.2
2017-Aug-09 22:30N 47°07' W 002°23'2 3.8
2017-Aug-09 22:00N 47°07' W 002°25'0 0.1
2017-Aug-09 21:30N 47°07' W 002°25'0 0.0
2017-Aug-09 21:00N 47°07' W 002°25'0 0.1
2017-Aug-09 20:30N 47°07' W 002°25'0 0.1
2017-Aug-09 20:00N 47°07' W 002°25'0 0.1
2017-Aug-09 19:30N 47°07' W 002°25'0 0.0
2017-Aug-09 18:51N 47°07' W 002°25'0 0.0
2017-Aug-09 18:21N 47°07' W 002°25'0 0.0
2017-Aug-09 18:00N 47°07' W 002°25'0 0.0
2017-Aug-09 17:30N 47°07' W 002°25'0 0.0
2017-Aug-09 17:00N 47°07' W 002°25'0 0.0
2017-Aug-09 16:30N 47°07' W 002°25'0 0.0
2017-Aug-09 15:57N 47°07' W 002°25'0 0.0
2017-Aug-09 15:27N 47°07' W 002°25'0 0.0
2017-Aug-09 14:30N 47°07' W 002°25'0 0.0
2017-Aug-09 09:24N 47°07' W 002°25'0 0.0
2017-Aug-09 08:57N 47°07' W 002°25'0 0.0
2017-Aug-09 08:27N 47°07' W 002°25'0 0.1
2017-Aug-09 07:45N 47°07' W 002°25'0 0.1
2017-Aug-09 07:18N 47°07' W 002°25'0 0.0
2017-Aug-09 06:57N 47°07' W 002°25'0 0.0
2017-Aug-09 06:27N 47°07' W 002°25'0 0.0
2017-Aug-09 06:00N 47°07' W 002°25'0 0.0
2017-Aug-09 04:30N 47°07' W 002°25'0 0.0
2017-Aug-09 04:00N 47°07' W 002°25'0 0.0
2017-Aug-09 03:21N 47°07' W 002°25'0 0.0
2017-Aug-09 01:20N 47°07' W 002°25'0 0.0
2017-Aug-09 00:59N 47°07' W 002°25'0 0.0
2017-Aug-09 00:29N 47°07' W 002°25'0 0.0
2017-Aug-08 23:56N 47°07' W 002°25'  
Track history (hours):
 
Tides and Currents Weather Stations Pressure Air Temp Water Temp Dewpoint Dewpoint Depression Visibility Wind Speed Wind Dir Waves Ship Positions

Panda

Last reported at 2017-Aug-18 23:30 UTC. Time now 2017-Aug-18 23:54 UTC.
Position N 52°24' E 004°49'.

Length 89 m; draft 3.1 m.

Type: Cargo ship. MMSI: 245014000.

Date/timePositionNaut miles runAvg speedWind from/ knotsBaromVisibWave heightAir tempDewpointWater temp
2017-Aug-18 23:30N 52°24' E 004°49'0 0.0
2017-Aug-18 23:00N 52°24' E 004°49'0 0.0
2017-Aug-18 22:30N 52°24' E 004°49'0 0.0
2017-Aug-18 22:00N 52°24' E 004°49'0 0.0
2017-Aug-18 21:30N 52°24' E 004°49'0 0.1
2017-Aug-18 21:00N 52°24' E 004°49'0 0.0
2017-Aug-18 20:30N 52°24' E 004°49'0 0.0
2017-Aug-18 20:00N 52°24' E 004°49'0 0.0
2017-Aug-18 19:30N 52°24' E 004°49'0 0.0
2017-Aug-18 19:00N 52°24' E 004°49'0 0.0
2017-Aug-18 18:30N 52°24' E 004°49'0 0.0
2017-Aug-18 18:00N 52°24' E 004°49'0 0.0
2017-Aug-18 17:30N 52°24' E 004°49'0 0.0
2017-Aug-18 17:00N 52°24' E 004°49'0 0.0
2017-Aug-18 16:30N 52°24' E 004°49'0 0.0
2017-Aug-18 16:00N 52°24' E 004°49'0 0.0
2017-Aug-18 15:30N 52°24' E 004°49'0 0.0
2017-Aug-18 15:00N 52°24' E 004°49'0 0.0
2017-Aug-18 13:57N 52°24' E 004°49'0 0.1
2017-Aug-18 13:30N 52°24' E 004°49'0 0.1
2017-Aug-18 13:00N 52°24' E 004°49'0 0.0
2017-Aug-18 12:30N 52°24' E 004°49'0 0.0
2017-Aug-18 12:00N 52°24' E 004°49'0 0.0
2017-Aug-18 11:30N 52°24' E 004°49'0 0.1
2017-Aug-18 10:59N 52°24' E 004°49'0 0.1
2017-Aug-18 10:31N 52°24' E 004°49'2 3.3
2017-Aug-18 10:01N 52°25' E 004°48'3 6.3
2017-Aug-18 09:30N 52°26' E 004°43'4 8.3
2017-Aug-18 09:00N 52°28' E 004°37'1 2.0
2017-Aug-18 08:31N 52°28' E 004°35'4 8.3
2017-Aug-18 08:00N 52°28' E 004°28'510.0
2017-Aug-18 07:30N 52°28' E 004°20'510.2
2017-Aug-18 07:00N 52°29' E 004°12'510.0
2017-Aug-18 06:30N 52°28' E 004°04'5 9.9
2017-Aug-18 06:00N 52°27' E 003°56'6610.2
2017-Aug-17 23:35N 52°34' E 002°09'1 9.0
2017-Aug-17 23:29N 52°34' E 002°08'4 8.9
2017-Aug-17 23:00N 52°38' E 002°04'4 8.6
2017-Aug-17 22:30N 52°41' E 002°00'4 8.5
2017-Aug-17 22:00N 52°45' E 001°57'4 8.5
2017-Aug-17 21:30N 52°49' E 001°52'4 8.8
2017-Aug-17 21:00N 52°51' E 001°46'4 8.7
2017-Aug-17 20:30N 52°53' E 001°40'4 8.9
2017-Aug-17 20:00N 52°55' E 001°34'5 9.2
2017-Aug-17 19:30N 52°57' E 001°27'5 9.8
2017-Aug-17 19:00N 52°59' E 001°19'510.2
2017-Aug-17 18:30N 53°01' E 001°12'2 0.1
2017-Aug-16 08:45N 53°02' E 001°08'310.6
2017-Aug-16 08:30N 53°01' E 001°12'511.0
2017-Aug-16 08:00N 52°59' E 001°21'611.4
2017-Aug-16 07:30N 52°56' E 001°29'611.4
2017-Aug-16 07:00N 52°53' E 001°37'611.1
2017-Aug-16 06:30N 52°50' E 001°45'510.4
2017-Aug-16 06:00N 52°47' E 001°52'5 9.8
2017-Aug-16 05:30N 52°45' E 001°59'5 9.5
2017-Aug-16 05:00N 52°42' E 002°06'5 9.1
2017-Aug-16 04:30N 52°40' E 002°12'5 8.8
2017-Aug-16 03:59N 52°37' E 002°18'4 8.4
2017-Aug-16 03:30N 52°35' E 002°24'10 8.4
2017-Aug-16 02:18N 52°29' E 002°37'3 9.1
2017-Aug-16 02:00N 52°28' E 002°41'5 9.5
2017-Aug-16 01:30N 52°26' E 002°48'5 9.6
2017-Aug-16 01:00N 52°23' E 002°55'6 9.8
2017-Aug-16 00:26N 52°20' E 003°02'510.1
2017-Aug-15 23:56N 52°17' E 003°09'410.2
2017-Aug-15 23:30N 52°15' E 003°15'510.4
2017-Aug-15 23:01N 52°12' E 003°22'510.3
2017-Aug-15 22:30N 52°10' E 003°30'611.4
2017-Aug-15 22:00N 52°07' E 003°38'4 8.9
2017-Aug-15 21:30N 52°05' E 003°45'5 9.8
2017-Aug-15 21:00N 52°04' E 003°52'5 9.4
2017-Aug-15 20:30N 52°02' E 003°59'5 9.9
2017-Aug-15 20:00N 51°59' E 004°06'4 8.6
2017-Aug-15 19:30N 51°57' E 004°11'4 8.4
2017-Aug-15 19:00N 51°54' E 004°17'4 8.0
2017-Aug-15 18:30N 51°54' E 004°23'3 5.0
2017-Aug-15 18:00N 51°54' E 004°27'2 4.5
2017-Aug-15 17:30N 51°55' E 004°31'4 8.4
2017-Aug-15 17:00N 51°53' E 004°37'5 9.6
2017-Aug-15 16:31N 51°49' E 004°41'0 0.7
2017-Aug-15 16:00N 51°49' E 004°42'0 0.0
2017-Aug-15 15:30N 51°49' E 004°42'0 0.2
2017-Aug-15 15:00N 51°49' E 004°41'4 7.3
2017-Aug-15 14:30N 51°49' E 004°47'510.5
2017-Aug-15 14:00N 51°50' E 004°56'30 9.1
2017-Aug-15 10:40N 51°53' E 005°44'210.7
2017-Aug-15 10:30N 51°53' E 005°47'4 8.4
2017-Aug-15 09:59N 51°52' E 005°54'4 7.6
2017-Aug-15 09:30N 51°53' E 006°00'510.3
2017-Aug-15 09:00N 51°51' E 006°08'510.6
2017-Aug-15 08:30N 51°49' E 006°16'11 9.0
2017-Aug-15 07:15N 51°41' E 006°28'2 9.3
2017-Aug-15 07:00N 51°40' E 006°31'4 7.2
2017-Aug-15 06:30N 51°37' E 006°35'4 7.6
2017-Aug-15 05:58N 51°35' E 006°41'4 9.4
2017-Aug-15 05:30N 51°31' E 006°43'3 6.7
2017-Aug-15 05:00N 51°27' E 006°43'2 3.6
2017-Aug-15 04:30N 51°27' E 006°46'0 0.0
2017-Aug-15 03:43N 51°27' E 006°46'0 0.0
2017-Aug-15 03:25N 51°27' E 006°46'0 0.0
2017-Aug-15 02:58N 51°27' E 006°46'0 0.0
2017-Aug-15 02:25N 51°27' E 006°46'0 0.0
2017-Aug-15 01:58N 51°27' E 006°46'0 0.0
2017-Aug-15 01:28N 51°27' E 006°46'0 0.0
2017-Aug-15 00:58N 51°27' E 006°46'0 0.0
2017-Aug-15 00:31N 51°27' E 006°46'0 0.0
2017-Aug-15 00:01N 51°27' E 006°46'0 0.0
2017-Aug-14 23:30N 51°27' E 006°46'0 0.0
2017-Aug-14 23:00N 51°27' E 006°46'0 0.0
2017-Aug-14 22:27N 51°27' E 006°46'0 0.0
2017-Aug-14 21:57N 51°27' E 006°46'0 0.0
2017-Aug-14 21:30N 51°27' E 006°46'0 0.0
2017-Aug-14 20:57N 51°27' E 006°46'0 0.0
2017-Aug-14 20:30N 51°27' E 006°46'0 0.0
2017-Aug-14 20:00N 51°27' E 006°46'0 0.0
2017-Aug-14 19:24N 51°27' E 006°46'0 0.0
2017-Aug-14 19:00N 51°27' E 006°46'0 0.0
2017-Aug-14 18:30N 51°27' E 006°46'0 0.0
2017-Aug-14 17:57N 51°27' E 006°46'0 0.0
2017-Aug-14 17:30N 51°27' E 006°46'0 0.0
2017-Aug-14 16:57N 51°27' E 006°46'0 0.0
2017-Aug-14 16:30N 51°27' E 006°46'0 0.0
2017-Aug-14 16:00N 51°27' E 006°46'0 0.0
2017-Aug-14 15:30N 51°27' E 006°46'0 0.0
2017-Aug-14 14:57N 51°27' E 006°46'0 0.0
2017-Aug-14 13:39N 51°27' E 006°46'0 0.0
2017-Aug-14 13:27N 51°27' E 006°46'0 0.0
2017-Aug-14 12:54N 51°27' E 006°46'0 0.0
2017-Aug-14 12:21N 51°27' E 006°46'0 0.0
2017-Aug-14 06:21N 51°27' E 006°46'0 0.0
2017-Aug-14 06:00N 51°27' E 006°46'0 0.0
2017-Aug-14 05:00N 51°27' E 006°46'0 0.0
2017-Aug-14 04:27N 51°27' E 006°46'0 0.0
2017-Aug-14 03:42N 51°27' E 006°46'0 0.0
2017-Aug-14 03:30N 51°27' E 006°46'0 0.0
2017-Aug-14 03:00N 51°27' E 006°46'0 0.0
2017-Aug-14 02:30N 51°27' E 006°46'0 0.0
2017-Aug-14 02:00N 51°27' E 006°46'1 1.0
2017-Aug-14 01:30N 51°27' E 006°46'2 3.0
2017-Aug-14 01:00N 51°27' E 006°43'3 5.1
2017-Aug-14 00:30N 51°29' E 006°41'2 4.3
2017-Aug-14 00:00N 51°31' E 006°42'3 5.5
2017-Aug-13 23:30N 51°34' E 006°41'3 5.4
2017-Aug-13 22:58N 51°34' E 006°37'3 6.3
2017-Aug-13 22:30N 51°37' E 006°35'3 5.4
2017-Aug-13 22:00N 51°40' E 006°35'4 6.6
2017-Aug-13 21:28N 51°40' E 006°29'5 5.8
2017-Aug-13 20:36N 51°44' E 006°25'1 6.4
2017-Aug-13 20:30N 51°45' E 006°25'4 6.1
2017-Aug-13 19:54N 51°46' E 006°20'3 6.9
2017-Aug-13 19:30N 51°48' E 006°18'3 6.8
2017-Aug-13 19:00N 51°50' E 006°13'3 6.4
2017-Aug-13 18:31N 51°51' E 006°08'3 6.9
2017-Aug-13 18:00N 51°52' E 006°03'3 5.6
2017-Aug-13 17:30N 51°51' E 005°59'3 6.5
2017-Aug-13 17:00N 51°52' E 005°54'3 4.9
2017-Aug-13 16:26N 51°52' E 005°49'28 6.3
2017-Aug-13 11:59N 51°49' E 005°04'4 9.1
2017-Aug-13 11:30N 51°50' E 004°57'5 9.2
2017-Aug-13 11:00N 51°49' E 004°49'4 8.8
2017-Aug-13 10:30N 51°49' E 004°42'4 8.4
2017-Aug-13 10:00N 51°53' E 004°38'4 9.1
2017-Aug-13 09:30N 51°54' E 004°31'2 4.5
2017-Aug-13 09:00N 51°54' E 004°27'0 0.8
2017-Aug-13 08:30N 51°54' E 004°27'5 9.0
2017-Aug-13 08:00N 51°54' E 004°20'5 9.8
2017-Aug-13 07:30N 51°56' E 004°13'510.6
2017-Aug-13 07:00N 51°59' E 004°05'510.3
2017-Aug-13 06:30N 51°60' E 003°57'611.9
2017-Aug-13 06:00N 51°59' E 003°48'1428.2
2017-Aug-13 05:30N 51°55' E 003°25'0 0.0
2017-Aug-13 05:00N 51°55' E 003°25'4 7.6
2017-Aug-13 04:30N 51°54' E 003°19'2611.3
2017-Aug-13 02:13N 51°45' E 002°40'310.3
2017-Aug-13 01:55N 51°43' E 002°36'410.0
2017-Aug-13 01:30N 51°40' E 002°32'5 9.7
2017-Aug-13 01:00N 51°36' E 002°27'5 9.3
2017-Aug-13 00:30N 51°33' E 002°22'4 8.9
2017-Aug-13 00:00N 51°30' E 002°17'4 9.0
2017-Aug-12 23:30N 51°26' E 002°13'4 8.8
2017-Aug-12 23:00N 51°22' E 002°10'4 8.8
2017-Aug-12 22:30N 51°18' E 002°06'4 8.8
2017-Aug-12 22:00N 51°14' E 002°03'4 8.9
2017-Aug-12 21:30N 51°12' E 001°57'5 9.0
2017-Aug-12 21:00N 51°09' E 001°51'4 8.9
2017-Aug-12 20:30N 51°06' E 001°45'5 9.3
2017-Aug-12 20:00N 51°03' E 001°41'5 9.6
2017-Aug-12 19:30N 50°59' E 001°36'5 9.9
2017-Aug-12 19:00N 50°55' E 001°31'5910.1
2017-Aug-12 13:09N 50°20' E 000°15'412.0
2017-Aug-12 12:51N 50°20' E 000°10'412.3
2017-Aug-12 12:30N 50°19' E 000°03'612.7
2017-Aug-12 12:00N 50°17' W 000°06'613.0
2017-Aug-12 11:30N 50°15' W 000°16'2513.3
2017-Aug-12 09:36N 50°08' W 000°54'112.8
2017-Aug-12 09:30N 50°08' W 000°56'612.6
2017-Aug-12 09:01N 50°06' W 001°05'612.1
2017-Aug-12 08:30N 50°04' W 001°14'611.2
2017-Aug-12 08:00N 50°03' W 001°23'510.3
2017-Aug-12 07:30N 50°02' W 001°30'5 9.6
2017-Aug-12 07:00N 50°01' W 001°38'4 8.6
2017-Aug-12 06:31N 49°60' W 001°44'4 7.9
2017-Aug-12 06:00N 49°59' W 001°50'4 7.3
2017-Aug-12 05:30N 49°58' W 001°56'3 6.8
2017-Aug-12 05:00N 49°57' W 002°01'3 6.5
2017-Aug-12 04:30N 49°56' W 002°06'3 6.6
2017-Aug-12 04:00N 49°55' W 002°10'21 8.4
2017-Aug-12 01:31N 49°49' W 002°42'010.1
2017-Aug-12 01:30N 49°49' W 002°42'510.2
2017-Aug-12 01:00N 49°48' W 002°50'1110.7
2017-Aug-11 23:57N 49°42' W 003°04'711.2
2017-Aug-11 23:18N 49°37' W 003°13'311.2
2017-Aug-11 23:00N 49°35' W 003°17'2111.7
2017-Aug-11 21:12N 49°22' W 003°43'412.1
2017-Aug-11 20:52N 49°20' W 003°48'712.2
2017-Aug-11 20:15N 49°15' W 003°57'512.6
2017-Aug-11 19:51N 49°12' W 004°03'512.6
2017-Aug-11 19:27N 49°09' W 004°09'912.7
2017-Aug-11 18:43N 49°04' W 004°21'1512.7
2017-Aug-11 17:32N 48°55' W 004°40'012.7
2017-Aug-11 17:30N 48°55' W 004°40'612.7
2017-Aug-11 17:00N 48°51' W 004°48'612.6
2017-Aug-11 16:30N 48°47' W 004°56'612.3
2017-Aug-11 16:00N 48°44' W 005°03'612.1
2017-Aug-11 15:30N 48°40' W 005°11'611.7
2017-Aug-11 15:00N 48°36' W 005°17'611.0
2017-Aug-11 14:30N 48°32' W 005°23'9 9.2
2017-Aug-11 13:29N 48°23' W 005°21'5 9.6
2017-Aug-11 12:55N 48°18' W 005°19'4 9.3
2017-Aug-11 12:30N 48°14' W 005°17'5 9.4
2017-Aug-11 12:00N 48°09' W 005°15'5 9.6
2017-Aug-11 11:29N 48°05' W 005°12'5 9.5
2017-Aug-11 11:00N 48°01' W 005°08'510.1
2017-Aug-11 10:30N 47°59' W 005°02'5 9.8
2017-Aug-11 10:00N 47°56' W 004°55'510.0
2017-Aug-11 09:30N 47°53' W 004°49'5 9.8
2017-Aug-11 09:00N 47°51' W 004°43'5 9.5
2017-Aug-11 08:30N 47°48' W 004°37'5 8.9
2017-Aug-11 07:55N 47°46' W 004°30'7 8.6
2017-Aug-11 07:07N 47°42' W 004°21'8 8.8
2017-Aug-11 06:10N 47°38' W 004°10'2 8.9
2017-Aug-11 05:58N 47°37' W 004°08'4 8.9
2017-Aug-11 05:30N 47°35' W 004°03'5 9.1
2017-Aug-11 04:59N 47°33' W 003°57'4 9.1
2017-Aug-11 04:30N 47°31' W 003°51'4 8.8
2017-Aug-11 04:00N 47°28' W 003°46'5 9.0
2017-Aug-11 03:30N 47°25' W 003°41'5 9.1
2017-Aug-11 03:00N 47°23' W 003°35'5 9.1
2017-Aug-11 02:30N 47°20' W 003°29'5 9.1
2017-Aug-11 02:00N 47°18' W 003°24'4 8.9
2017-Aug-11 01:30N 47°16' W 003°18'4 9.0
2017-Aug-11 01:00N 47°14' W 003°11'5 9.2
2017-Aug-11 00:30N 47°13' W 003°05'5 9.1
2017-Aug-11 00:00N 47°11' W 002°59'4 9.1
2017-Aug-10 23:30N 47°10' W 002°53'5 9.5
2017-Aug-10 22:58N 47°08' W 002°46'5 9.9
2017-Aug-10 22:30N 47°07' W 002°39'510.2
2017-Aug-10 22:00N 47°06' W 002°31'510.1
2017-Aug-10 21:30N 47°07' W 002°24'510.4
2017-Aug-10 21:00N 47°10' W 002°19'511.0
2017-Aug-10 20:30N 47°15' W 002°14'611.0
2017-Aug-10 20:00N 47°18' W 002°08'0 0.0
2017-Aug-10 19:30N 47°18' W 002°08'0 0.0
2017-Aug-10 19:00N 47°18' W 002°08'0 0.0
2017-Aug-10 17:45N 47°18' W 002°08'0 0.0
2017-Aug-10 17:09N 47°18' W 002°08'0 0.0
2017-Aug-10 17:00N 47°18' W 002°08'0 0.0
2017-Aug-10 16:24N 47°18' W 002°08'0 0.0
2017-Aug-10 16:00N 47°18' W 002°08'0 0.0
2017-Aug-10 15:30N 47°18' W 002°08'0 0.0
2017-Aug-10 14:57N 47°18' W 002°08'0 0.0
2017-Aug-10 14:27N 47°18' W 002°08'0 0.0
2017-Aug-10 12:57N 47°18' W 002°08'0 0.0
2017-Aug-10 11:21N 47°18' W 002°08'0 0.0
2017-Aug-10 10:54N 47°18' W 002°08'0 0.0
2017-Aug-10 10:09N 47°18' W 002°08'0 0.0
2017-Aug-10 10:00N 47°18' W 002°08'0 0.0
2017-Aug-10 09:24N 47°18' W 002°08'0 0.0
2017-Aug-10 08:57N 47°18' W 002°08'0 0.0
2017-Aug-10 08:30N 47°18' W 002°08'0 0.0
2017-Aug-10 08:00N 47°18' W 002°08'0 0.0
2017-Aug-10 07:30N 47°18' W 002°08'0 0.0
2017-Aug-10 07:00N 47°18' W 002°08'0 0.0
2017-Aug-10 06:12N 47°18' W 002°08'0 0.0
2017-Aug-10 06:00N 47°18' W 002°08'0 0.0
2017-Aug-10 05:30N 47°18' W 002°08'0 0.0
2017-Aug-10 05:00N 47°18' W 002°08'0 0.0
2017-Aug-10 04:30N 47°18' W 002°08'0 0.0
2017-Aug-10 04:00N 47°18' W 002°08'0 0.0
2017-Aug-10 03:30N 47°18' W 002°08'0 0.0
2017-Aug-10 02:57N 47°18' W 002°08'0 0.0
2017-Aug-10 02:24N 47°18' W 002°08'0 0.0
2017-Aug-10 02:00N 47°18' W 002°08'0 0.0
2017-Aug-10 01:27N 47°18' W 002°08'0 0.0
2017-Aug-10 01:00N 47°18' W 002°08'0 0.9
2017-Aug-10 00:30N 47°18' W 002°07'4 7.6
2017-Aug-10 00:00N 47°16' W 002°11'4 8.9
2017-Aug-09 23:30N 47°13' W 002°16'4 8.9
2017-Aug-09 23:00N 47°09' W 002°20'3 6.2
2017-Aug-09 22:30N 47°07' W 002°23'2 3.8
2017-Aug-09 22:00N 47°07' W 002°25'0 0.1
2017-Aug-09 21:30N 47°07' W 002°25'0 0.0
2017-Aug-09 21:00N 47°07' W 002°25'0 0.1
2017-Aug-09 20:30N 47°07' W 002°25'0 0.1
2017-Aug-09 20:00N 47°07' W 002°25'0 0.1
2017-Aug-09 19:30N 47°07' W 002°25'0 0.0
2017-Aug-09 18:51N 47°07' W 002°25'0 0.0
2017-Aug-09 18:21N 47°07' W 002°25'0 0.0
2017-Aug-09 18:00N 47°07' W 002°25'0 0.0
2017-Aug-09 17:30N 47°07' W 002°25'0 0.0
2017-Aug-09 17:00N 47°07' W 002°25'0 0.0
2017-Aug-09 16:30N 47°07' W 002°25'0 0.0
2017-Aug-09 15:57N 47°07' W 002°25'0 0.0
2017-Aug-09 15:27N 47°07' W 002°25'0 0.0
2017-Aug-09 14:30N 47°07' W 002°25'0 0.0
2017-Aug-09 09:24N 47°07' W 002°25'0 0.0
2017-Aug-09 08:57N 47°07' W 002°25'0 0.0
2017-Aug-09 08:27N 47°07' W 002°25'0 0.1
2017-Aug-09 07:45N 47°07' W 002°25'0 0.1
2017-Aug-09 07:18N 47°07' W 002°25'0 0.0
2017-Aug-09 06:57N 47°07' W 002°25'0 0.0
2017-Aug-09 06:27N 47°07' W 002°25'0 0.0
2017-Aug-09 06:00N 47°07' W 002°25'0 0.0
2017-Aug-09 04:30N 47°07' W 002°25'0 0.0
2017-Aug-09 04:00N 47°07' W 002°25'0 0.0
2017-Aug-09 03:21N 47°07' W 002°25'0 0.0
2017-Aug-09 01:20N 47°07' W 002°25'0 0.0
2017-Aug-09 00:59N 47°07' W 002°25'0 0.0
2017-Aug-09 00:29N 47°07' W 002°25'0 0.0
2017-Aug-08 23:56N 47°07' W 002°25'  

Dump ship's entire track history